Moby Aki — IBVV — position and weather

sailwx.info

Track history (hours):
 
Tides and Currents Weather Stations Pressure Air Temp Water Temp Dewpoint Dewpoint Depression Visibility Wind Speed Wind Dir Waves Ship Positions

Moby Aki

Last reported at 2015-Jul-03 16:28 UTC. Time now 2015-Jul-03 17:24 UTC.
Position N 41°49' E 009°51'.

Length 175 m; draft 6.9 m.

Type: Passenger vessel. MMSI: 247132400.

Date/timePositionNaut miles runAvg speedWind from/ knotsBaromVisibWave heightAir tempDewpointWater temp
2015-Jul-03 16:28N 41°49' E 009°51'2426.1
2015-Jul-03 15:34N 41°25' E 009°47'2626.3
2015-Jul-03 14:33N 40°59' E 009°42'25 7.8
2015-Jul-03 11:24N 41°24' E 009°46'2226.9
2015-Jul-03 10:34N 41°46' E 009°49'2726.7
2015-Jul-03 09:33N 42°12' E 009°53'2626.3
2015-Jul-03 08:33N 42°38' E 009°58'2626.3
2015-Jul-03 07:33N 43°04' E 010°05'2626.2
2015-Jul-03 06:33N 43°30' E 010°13'5 4.8
2015-Jul-03 05:32N 43°33' E 010°18'0 0.0
2015-Jul-03 04:33N 43°33' E 010°18'1010.4
2015-Jul-03 03:33N 43°24' E 010°11'2121.3
2015-Jul-03 02:34N 43°03' E 010°05'2121.0
2015-Jul-03 01:32N 42°42' E 009°59'2121.8
2015-Jul-03 00:33N 42°21' E 009°56'2221.8
2015-Jul-02 23:33N 41°59' E 009°52'2721.7
2015-Jul-02 22:18N 41°32' E 009°49'1821.2
2015-Jul-02 21:28N 41°15' E 009°45'20 2.2
2015-Jul-02 12:33N 40°56' E 009°36'2923.0
2015-Jul-02 11:19N 41°24' E 009°46'3326.5
2015-Jul-02 10:04N 41°57' E 009°51'1326.2
2015-Jul-02 09:34N 42°10' E 009°54'2626.0
2015-Jul-02 08:34N 42°36' E 009°58'2626.0
2015-Jul-02 07:33N 43°01' E 010°04'2626.1
2015-Jul-02 06:34N 43°27' E 010°12'8 7.6
2015-Jul-02 05:31N 43°33' E 010°18'0 0.0
2015-Jul-02 04:31N 43°33' E 010°18'5 5.4
2015-Jul-02 03:34N 43°29' E 010°13'2222.5
2015-Jul-02 02:33N 43°07' E 010°06'2222.4
2015-Jul-02 01:33N 42°45' E 009°60'2222.2
2015-Jul-02 00:33N 42°23' E 009°56'2322.6
2015-Jul-01 23:32N 42°01' E 009°51'2522.6
2015-Jul-01 22:26N 41°36' E 009°46'1921.5
2015-Jul-01 21:34N 41°17' E 009°43'22 2.4
2015-Jul-01 12:34N 40°56' E 009°36'3024.2
2015-Jul-01 11:19N 41°25' E 009°47'2026.8
2015-Jul-01 10:34N 41°45' E 009°50'2726.6
2015-Jul-01 09:33N 42°12' E 009°54'2626.3
2015-Jul-01 08:33N 42°38' E 009°58'2626.4
2015-Jul-01 07:33N 43°04' E 010°05'2626.4
2015-Jul-01 06:34N 43°29' E 010°13'5 5.3
2015-Jul-01 05:33N 43°33' E 010°18'0 0.0
2015-Jul-01 04:33N 43°33' E 010°18'1010.2
2015-Jul-01 03:34N 43°24' E 010°11'2121.3
2015-Jul-01 02:34N 43°04' E 010°05'2221.6
2015-Jul-01 01:34N 42°42' E 009°59'2221.6
2015-Jul-01 00:31N 42°20' E 009°55'2121.8
2015-Jun-30 23:33N 41°59' E 009°52'4321.2
2015-Jun-30 21:31N 41°16' E 009°45'2218.5
2015-Jun-30 20:19N 40°55' E 009°35'3 3.1
2015-Jun-30 19:29N 40°55' E 009°31'0 0.0
2015-Jun-30 18:29N 40°55' E 009°31'9 1.4
2015-Jun-30 12:11N 40°60' E 009°41'4526.3
2015-Jun-30 10:30N 41°44' E 009°50'2526.4
2015-Jun-30 09:33N 42°08' E 009°54'2626.2
2015-Jun-30 08:34N 42°34' E 009°58'2626.2
2015-Jun-30 07:33N 43°00' E 010°04'2626.3
2015-Jun-30 06:34N 43°26' E 010°11'9 8.3
2015-Jun-30 05:31N 43°33' E 010°18'0 0.0
2015-Jun-30 04:28N 43°33' E 010°18'5 5.7
2015-Jun-30 03:34N 43°29' E 010°13'2424.2
2015-Jun-30 02:33N 43°06' E 010°06'2424.5
2015-Jun-30 01:33N 42°42' E 009°59'2524.6
2015-Jun-30 00:34N 42°17' E 009°55'3024.5
2015-Jun-29 23:19N 41°47' E 009°50'2224.1
2015-Jun-29 22:24N 41°25' E 009°47'2023.5
2015-Jun-29 21:32N 41°05' E 009°43'13 5.9
2015-Jun-29 19:18N 40°55' E 009°31'0 0.0
2015-Jun-29 18:33N 40°55' E 009°31'1313.3
2015-Jun-29 17:34N 41°04' E 009°45'2626.0
2015-Jun-29 16:34N 41°28' E 009°59'2626.1
2015-Jun-29 15:33N 41°52' E 010°12'2626.4
2015-Jun-29 14:33N 42°16' E 010°26'2726.6
2015-Jun-29 13:33N 42°42' E 010°32'8 3.9
2015-Jun-29 11:34N 42°50' E 010°34'2626.3
2015-Jun-29 10:33N 42°24' E 010°28'2626.3
2015-Jun-29 09:33N 41°59' E 010°16'2626.5
2015-Jun-29 08:34N 41°35' E 010°02'2626.4
2015-Jun-29 07:33N 41°10' E 009°48'2016.5
2015-Jun-29 06:22N 40°55' E 009°31'0 0.0
2015-Jun-29 05:22N 40°55' E 009°31'5719.9
2015-Jun-29 02:29N 41°51' E 009°50'2526.3
2015-Jun-29 01:32N 42°16' E 009°55'2626.1
2015-Jun-29 00:33N 42°41' E 009°58'2626.0
2015-Jun-28 23:34N 43°07' E 010°04'2625.6
2015-Jun-28 22:34N 43°31' E 010°14'4 3.5
2015-Jun-28 21:31N 43°33' E 010°18'2 1.7
2015-Jun-28 20:33N 43°32' E 010°16'2222.4
2015-Jun-28 19:34N 43°11' E 010°06'2626.2
2015-Jun-28 18:33N 42°45' E 009°59'2626.5
2015-Jun-28 17:34N 42°19' E 009°54'5326.1
2015-Jun-28 15:33N 41°27' E 009°46'2726.1
2015-Jun-28 14:31N 41°00' E 009°42'10 8.6
2015-Jun-28 13:25N 40°55' E 009°31'2 2.3
2015-Jun-28 12:33N 40°55' E 009°34'12625.3
2015-Jun-28 07:33N 42°60' E 010°04'2726.5
2015-Jun-28 06:34N 43°26' E 010°12'9 8.6
2015-Jun-28 05:33N 43°33' E 010°18'0 0.0
2015-Jun-28 04:33N 43°33' E 010°18'9 9.0
2015-Jun-28 03:34N 43°25' E 010°12'2424.0
2015-Jun-28 02:33N 43°02' E 010°05'12022.7
2015-Jun-27 21:17N 41°03' E 009°43'1115.4
2015-Jun-27 20:33N 40°55' E 009°32'0 0.5
2015-Jun-27 19:33N 40°55' E 009°31'0 0.0
2015-Jun-27 18:33N 40°55' E 009°31'3517.5
2015-Jun-27 16:33N 41°24' E 009°57'2525.1
2015-Jun-27 15:33N 41°48' E 010°09'2524.6
2015-Jun-27 14:32N 42°11' E 010°23'2424.6
2015-Jun-27 13:33N 42°34' E 010°31'2221.4
2015-Jun-27 12:32N 42°56' E 010°33'1 1.2
2015-Jun-27 11:33N 42°55' E 010°34'2625.7
2015-Jun-27 10:33N 42°29' E 010°30'3226.3
2015-Jun-27 09:22N 41°60' E 010°14'5226.4
2015-Jun-27 07:23N 41°11' E 009°48'1922.4
2015-Jun-27 06:33N 40°56' E 009°35'1 0.7
2015-Jun-27 04:28N 40°56' E 009°37'7121.4
2015-Jun-27 01:10N 42°06' E 009°53'1423.0
2015-Jun-27 00:34N 42°20' E 009°54'2323.1
2015-Jun-26 23:33N 42°43' E 009°59'2423.8
2015-Jun-26 22:34N 43°06' E 010°06'2423.8
2015-Jun-26 21:34N 43°29' E 010°13'5 5.4
2015-Jun-26 20:33N 43°33' E 010°18'0 0.0
2015-Jun-26 19:33N 43°33' E 010°18'8 8.2
2015-Jun-26 18:34N 43°26' E 010°12'2626.2
2015-Jun-26 17:33N 43°01' E 010°04'2626.4
2015-Jun-26 16:34N 42°35' E 009°57'2726.5
2015-Jun-26 15:33N 42°08' E 009°53'7523.9
2015-Jun-26 12:26N 40°55' E 009°33'1 1.5
2015-Jun-26 11:31N 40°55' E 009°31'0 0.0
2015-Jun-26 10:31N 40°55' E 009°31'76 8.3
2015-Jun-26 01:19N 42°10' E 009°52'1722.7
2015-Jun-26 00:34N 42°27' E 009°54'2322.6
2015-Jun-25 23:34N 42°49' E 009°59'2323.0
2015-Jun-25 22:34N 43°12' E 010°06'2121.4
2015-Jun-25 21:33N 43°32' E 010°15'2 2.1
2015-Jun-25 20:32N 43°33' E 010°18'0 0.0
2015-Jun-25 19:32N 43°33' E 010°18'8 7.9
2015-Jun-25 18:33N 43°27' E 010°12'2625.8
2015-Jun-25 17:34N 43°02' E 010°03'12912.3
2015-Jun-25 07:07N 40°55' E 009°31'0 0.0
2015-Jun-25 06:31N 40°55' E 009°31'0 0.2
2015-Jun-25 05:33N 40°55' E 009°32'11518.8
2015-Jun-24 23:28N 42°49' E 009°58'1921.4
2015-Jun-24 22:34N 43°07' E 010°05'2221.7
2015-Jun-24 21:33N 43°28' E 010°12'6 6.2
2015-Jun-24 20:31N 43°33' E 010°18'0 0.0
2015-Jun-24 19:31N 43°33' E 010°18'9 9.2
2015-Jun-24 18:34N 43°26' E 010°11'2625.9
2015-Jun-24 17:34N 43°00' E 010°03'2926.2
2015-Jun-24 16:28N 42°32' E 009°57'9824.9
2015-Jun-24 12:31N 40°55' E 009°35'3 2.7
2015-Jun-24 11:33N 40°55' E 009°31'0 0.0
2015-Jun-24 10:27N 40°55' E 009°31'0 0.0
2015-Jun-24 09:27N 40°55' E 009°31'0 0.0
2015-Jun-24 08:33N 40°55' E 009°31'0 0.0
2015-Jun-24 07:33N 40°55' E 009°31'0 0.0
2015-Jun-24 06:27N 40°55' E 009°31'0 0.0
2015-Jun-24 05:30N 40°55' E 009°31'11218.7
2015-Jun-23 23:30N 42°45' E 010°01'2223.3
2015-Jun-23 22:34N 43°07' E 010°06'2222.3
2015-Jun-23 21:34N 43°29' E 010°12'6 5.9
2015-Jun-23 20:33N 43°33' E 010°18'0 0.0
2015-Jun-23 19:33N 43°33' E 010°18'0 0.1
2015-Jun-23 19:06N 43°33' E 010°18'  
Track history (hours):
 
Tides and Currents Weather Stations Pressure Air Temp Water Temp Dewpoint Dewpoint Depression Visibility Wind Speed Wind Dir Waves Ship Positions

Moby Aki

Last reported at 2015-Jul-03 16:28 UTC. Time now 2015-Jul-03 17:24 UTC.
Position N 41°49' E 009°51'.

Length 175 m; draft 6.9 m.

Type: Passenger vessel. MMSI: 247132400.

Date/timePositionNaut miles runAvg speedWind from/ knotsBaromVisibWave heightAir tempDewpointWater temp
2015-Jul-03 16:28N 41°49' E 009°51'2426.1
2015-Jul-03 15:34N 41°25' E 009°47'2626.3
2015-Jul-03 14:33N 40°59' E 009°42'25 7.8
2015-Jul-03 11:24N 41°24' E 009°46'2226.9
2015-Jul-03 10:34N 41°46' E 009°49'2726.7
2015-Jul-03 09:33N 42°12' E 009°53'2626.3
2015-Jul-03 08:33N 42°38' E 009°58'2626.3
2015-Jul-03 07:33N 43°04' E 010°05'2626.2
2015-Jul-03 06:33N 43°30' E 010°13'5 4.8
2015-Jul-03 05:32N 43°33' E 010°18'0 0.0
2015-Jul-03 04:33N 43°33' E 010°18'1010.4
2015-Jul-03 03:33N 43°24' E 010°11'2121.3
2015-Jul-03 02:34N 43°03' E 010°05'2121.0
2015-Jul-03 01:32N 42°42' E 009°59'2121.8
2015-Jul-03 00:33N 42°21' E 009°56'2221.8
2015-Jul-02 23:33N 41°59' E 009°52'2721.7
2015-Jul-02 22:18N 41°32' E 009°49'1821.2
2015-Jul-02 21:28N 41°15' E 009°45'20 2.2
2015-Jul-02 12:33N 40°56' E 009°36'2923.0
2015-Jul-02 11:19N 41°24' E 009°46'3326.5
2015-Jul-02 10:04N 41°57' E 009°51'1326.2
2015-Jul-02 09:34N 42°10' E 009°54'2626.0
2015-Jul-02 08:34N 42°36' E 009°58'2626.0
2015-Jul-02 07:33N 43°01' E 010°04'2626.1
2015-Jul-02 06:34N 43°27' E 010°12'8 7.6
2015-Jul-02 05:31N 43°33' E 010°18'0 0.0
2015-Jul-02 04:31N 43°33' E 010°18'5 5.4
2015-Jul-02 03:34N 43°29' E 010°13'2222.5
2015-Jul-02 02:33N 43°07' E 010°06'2222.4
2015-Jul-02 01:33N 42°45' E 009°60'2222.2
2015-Jul-02 00:33N 42°23' E 009°56'2322.6
2015-Jul-01 23:32N 42°01' E 009°51'2522.6
2015-Jul-01 22:26N 41°36' E 009°46'1921.5
2015-Jul-01 21:34N 41°17' E 009°43'22 2.4
2015-Jul-01 12:34N 40°56' E 009°36'3024.2
2015-Jul-01 11:19N 41°25' E 009°47'2026.8
2015-Jul-01 10:34N 41°45' E 009°50'2726.6
2015-Jul-01 09:33N 42°12' E 009°54'2626.3
2015-Jul-01 08:33N 42°38' E 009°58'2626.4
2015-Jul-01 07:33N 43°04' E 010°05'2626.4
2015-Jul-01 06:34N 43°29' E 010°13'5 5.3
2015-Jul-01 05:33N 43°33' E 010°18'0 0.0
2015-Jul-01 04:33N 43°33' E 010°18'1010.2
2015-Jul-01 03:34N 43°24' E 010°11'2121.3
2015-Jul-01 02:34N 43°04' E 010°05'2221.6
2015-Jul-01 01:34N 42°42' E 009°59'2221.6
2015-Jul-01 00:31N 42°20' E 009°55'2121.8
2015-Jun-30 23:33N 41°59' E 009°52'4321.2
2015-Jun-30 21:31N 41°16' E 009°45'2218.5
2015-Jun-30 20:19N 40°55' E 009°35'3 3.1
2015-Jun-30 19:29N 40°55' E 009°31'0 0.0
2015-Jun-30 18:29N 40°55' E 009°31'9 1.4
2015-Jun-30 12:11N 40°60' E 009°41'4526.3
2015-Jun-30 10:30N 41°44' E 009°50'2526.4
2015-Jun-30 09:33N 42°08' E 009°54'2626.2
2015-Jun-30 08:34N 42°34' E 009°58'2626.2
2015-Jun-30 07:33N 43°00' E 010°04'2626.3
2015-Jun-30 06:34N 43°26' E 010°11'9 8.3
2015-Jun-30 05:31N 43°33' E 010°18'0 0.0
2015-Jun-30 04:28N 43°33' E 010°18'5 5.7
2015-Jun-30 03:34N 43°29' E 010°13'2424.2
2015-Jun-30 02:33N 43°06' E 010°06'2424.5
2015-Jun-30 01:33N 42°42' E 009°59'2524.6
2015-Jun-30 00:34N 42°17' E 009°55'3024.5
2015-Jun-29 23:19N 41°47' E 009°50'2224.1
2015-Jun-29 22:24N 41°25' E 009°47'2023.5
2015-Jun-29 21:32N 41°05' E 009°43'13 5.9
2015-Jun-29 19:18N 40°55' E 009°31'0 0.0
2015-Jun-29 18:33N 40°55' E 009°31'1313.3
2015-Jun-29 17:34N 41°04' E 009°45'2626.0
2015-Jun-29 16:34N 41°28' E 009°59'2626.1
2015-Jun-29 15:33N 41°52' E 010°12'2626.4
2015-Jun-29 14:33N 42°16' E 010°26'2726.6
2015-Jun-29 13:33N 42°42' E 010°32'8 3.9
2015-Jun-29 11:34N 42°50' E 010°34'2626.3
2015-Jun-29 10:33N 42°24' E 010°28'2626.3
2015-Jun-29 09:33N 41°59' E 010°16'2626.5
2015-Jun-29 08:34N 41°35' E 010°02'2626.4
2015-Jun-29 07:33N 41°10' E 009°48'2016.5
2015-Jun-29 06:22N 40°55' E 009°31'0 0.0
2015-Jun-29 05:22N 40°55' E 009°31'5719.9
2015-Jun-29 02:29N 41°51' E 009°50'2526.3
2015-Jun-29 01:32N 42°16' E 009°55'2626.1
2015-Jun-29 00:33N 42°41' E 009°58'2626.0
2015-Jun-28 23:34N 43°07' E 010°04'2625.6
2015-Jun-28 22:34N 43°31' E 010°14'4 3.5
2015-Jun-28 21:31N 43°33' E 010°18'2 1.7
2015-Jun-28 20:33N 43°32' E 010°16'2222.4
2015-Jun-28 19:34N 43°11' E 010°06'2626.2
2015-Jun-28 18:33N 42°45' E 009°59'2626.5
2015-Jun-28 17:34N 42°19' E 009°54'5326.1
2015-Jun-28 15:33N 41°27' E 009°46'2726.1
2015-Jun-28 14:31N 41°00' E 009°42'10 8.6
2015-Jun-28 13:25N 40°55' E 009°31'2 2.3
2015-Jun-28 12:33N 40°55' E 009°34'12625.3
2015-Jun-28 07:33N 42°60' E 010°04'2726.5
2015-Jun-28 06:34N 43°26' E 010°12'9 8.6
2015-Jun-28 05:33N 43°33' E 010°18'0 0.0
2015-Jun-28 04:33N 43°33' E 010°18'9 9.0
2015-Jun-28 03:34N 43°25' E 010°12'2424.0
2015-Jun-28 02:33N 43°02' E 010°05'12022.7
2015-Jun-27 21:17N 41°03' E 009°43'1115.4
2015-Jun-27 20:33N 40°55' E 009°32'0 0.5
2015-Jun-27 19:33N 40°55' E 009°31'0 0.0
2015-Jun-27 18:33N 40°55' E 009°31'3517.5
2015-Jun-27 16:33N 41°24' E 009°57'2525.1
2015-Jun-27 15:33N 41°48' E 010°09'2524.6
2015-Jun-27 14:32N 42°11' E 010°23'2424.6
2015-Jun-27 13:33N 42°34' E 010°31'2221.4
2015-Jun-27 12:32N 42°56' E 010°33'1 1.2
2015-Jun-27 11:33N 42°55' E 010°34'2625.7
2015-Jun-27 10:33N 42°29' E 010°30'3226.3
2015-Jun-27 09:22N 41°60' E 010°14'5226.4
2015-Jun-27 07:23N 41°11' E 009°48'1922.4
2015-Jun-27 06:33N 40°56' E 009°35'1 0.7
2015-Jun-27 04:28N 40°56' E 009°37'7121.4
2015-Jun-27 01:10N 42°06' E 009°53'1423.0
2015-Jun-27 00:34N 42°20' E 009°54'2323.1
2015-Jun-26 23:33N 42°43' E 009°59'2423.8
2015-Jun-26 22:34N 43°06' E 010°06'2423.8
2015-Jun-26 21:34N 43°29' E 010°13'5 5.4
2015-Jun-26 20:33N 43°33' E 010°18'0 0.0
2015-Jun-26 19:33N 43°33' E 010°18'8 8.2
2015-Jun-26 18:34N 43°26' E 010°12'2626.2
2015-Jun-26 17:33N 43°01' E 010°04'2626.4
2015-Jun-26 16:34N 42°35' E 009°57'2726.5
2015-Jun-26 15:33N 42°08' E 009°53'7523.9
2015-Jun-26 12:26N 40°55' E 009°33'1 1.5
2015-Jun-26 11:31N 40°55' E 009°31'0 0.0
2015-Jun-26 10:31N 40°55' E 009°31'76 8.3
2015-Jun-26 01:19N 42°10' E 009°52'1722.7
2015-Jun-26 00:34N 42°27' E 009°54'2322.6
2015-Jun-25 23:34N 42°49' E 009°59'2323.0
2015-Jun-25 22:34N 43°12' E 010°06'2121.4
2015-Jun-25 21:33N 43°32' E 010°15'2 2.1
2015-Jun-25 20:32N 43°33' E 010°18'0 0.0
2015-Jun-25 19:32N 43°33' E 010°18'8 7.9
2015-Jun-25 18:33N 43°27' E 010°12'2625.8
2015-Jun-25 17:34N 43°02' E 010°03'12912.3
2015-Jun-25 07:07N 40°55' E 009°31'0 0.0
2015-Jun-25 06:31N 40°55' E 009°31'0 0.2
2015-Jun-25 05:33N 40°55' E 009°32'11518.8
2015-Jun-24 23:28N 42°49' E 009°58'1921.4
2015-Jun-24 22:34N 43°07' E 010°05'2221.7
2015-Jun-24 21:33N 43°28' E 010°12'6 6.2
2015-Jun-24 20:31N 43°33' E 010°18'0 0.0
2015-Jun-24 19:31N 43°33' E 010°18'9 9.2
2015-Jun-24 18:34N 43°26' E 010°11'2625.9
2015-Jun-24 17:34N 43°00' E 010°03'2926.2
2015-Jun-24 16:28N 42°32' E 009°57'9824.9
2015-Jun-24 12:31N 40°55' E 009°35'3 2.7
2015-Jun-24 11:33N 40°55' E 009°31'0 0.0
2015-Jun-24 10:27N 40°55' E 009°31'0 0.0
2015-Jun-24 09:27N 40°55' E 009°31'0 0.0
2015-Jun-24 08:33N 40°55' E 009°31'0 0.0
2015-Jun-24 07:33N 40°55' E 009°31'0 0.0
2015-Jun-24 06:27N 40°55' E 009°31'0 0.0
2015-Jun-24 05:30N 40°55' E 009°31'11218.7
2015-Jun-23 23:30N 42°45' E 010°01'2223.3
2015-Jun-23 22:34N 43°07' E 010°06'2222.3
2015-Jun-23 21:34N 43°29' E 010°12'6 5.9
2015-Jun-23 20:33N 43°33' E 010°18'0 0.0
2015-Jun-23 19:33N 43°33' E 010°18'0 0.1
2015-Jun-23 19:06N 43°33' E 010°18'  

Dump ship's entire track history